Home > Products > Valid Products > TAF

000
FTUS45 KPSR 242000 AAA
TAFPHX
TAF AMD
KPHX 242033Z 2421/2518 VRB04KT P6SM SKC
      TEMPO 2423/2503 27004KT
     FM250600 10005KT P6SM SKC
     FM251600 10005KT P6SM BKN100=



000
FTUS45 KPSR 241700
TAFIWA
TAF
KIWA 241720Z 2418/2518 12006KT P6SM SKC
     FM242000 28004KT P6SM SKC
     FM250400 11005KT P6SM SKC
     FM251600 15007KT P6SM BKN100=



000
FTUS45 KPSR 241700
TAFIPL
TAF
KIPL 241720Z 2418/2518 31007KT P6SM SKC
     FM242100 12004KT P6SM SKC
     FM250500 26004KT P6SM SCT100=



000
FTUS45 KPSR 241700
TAFPHX
TAF
KPHX 241720Z 2418/2518 12008KT P6SM SKC
     FM242000 VRB04KT P6SM SKC
      TEMPO 2423/2503 27004KT
     FM250600 10005KT P6SM SKC
     FM251600 10005KT P6SM BKN100=



000
FTUS45 KPSR 241700
TAFBLH
TAF
KBLH 241720Z 2418/2518 16005KT P6SM SKC
     FM250400 23005KT P6SM SKC
     FM251500 16007KT P6SM SCT100=



000
FTUS45 KPSR 241400 AAA
TAFPHX
TAF AMD
KPHX 241433Z 2415/2512 10005KT P6SM SKC
     FM242000 VRB04KT P6SM SKC
      TEMPO 2423/2503 27004KT
     FM250600 10005KT P6SM SKC=



000
FTUS45 KPSR 241100
TAFIPL
TAF
KIPL 241129Z 2412/2512 27005KT P6SM SKC
     FM241500 12004KT P6SM SKC
     FM250500 26004KT P6SM SKC=



000
FTUS45 KPSR 241100
TAFIWA
TAF
KIWA 241129Z 2412/2512 12006KT P6SM SKC
     FM242000 28004KT P6SM SKC
     FM250400 11005KT P6SM SKC
      AMD LTD TO CLD VIS AND WIND TIL 241300=



000
FTUS45 KPSR 241100
TAFBLH
TAF
KBLH 241129Z 2412/2512 36004KT P6SM SKC
     FM241800 16005KT P6SM SKC
     FM250400 23005KT P6SM SKC=



000
FTUS45 KPSR 241100
TAFPHX
TAF
KPHX 241129Z 2412/2512 10005KT P6SM SKC
     FM242000 VRB04KT P6SM SKC
      TEMPO 2423/2503 27004KT
     FM250600 10005KT P6SM SKC=



000
FTUS45 KPSR 240800 AAA
TAFPHX
TAF AMD
KPHX 240847Z 2409/2506 11004KT P6SM SKC
     FM242100 VRB04KT P6SM SKC
      TEMPO 2423/2503 27004KT=



000
FTUS45 KPSR 240500
TAFIPL
TAF
KIPL 240520Z 2406/2506 VRB05KT P6SM SKC
     FM241500 12004KT P6SM SKC
     FM250300 26004KT P6SM SKC=



000
FTUS45 KPSR 240500
TAFPHX
TAF
KPHX 240520Z 2406/2506 10005KT P6SM SKC
     FM242100 VRB04KT P6SM SKC
      TEMPO 2423/2503 27004KT=



000
FTUS45 KPSR 240500
TAFIWA
TAF
KIWA 240520Z 2406/2506 10006KT P6SM SKC
     FM242000 28004KT P6SM SKC
     FM250400 11005KT P6SM SKC
      AMD LTD TO CLD VIS AND WIND TIL 241300=



000
FTUS45 KPSR 240500
TAFBLH
TAF
KBLH 240520Z 2406/2506 VRB04KT P6SM SKC
      TEMPO 2410/2414 34004KT
     FM241800 16005KT P6SM SKC
     FM250200 23005KT P6SM SKC=



000
FTUS45 KPSR 240200 AAA
TAFPHX
TAF AMD
KPHX 240239Z 2403/2424 VRB04KT P6SM FEW250
     FM240800 10005KT P6SM SKC
     FM242100 VRB04KT P6SM SKC=



000
FTUS45 KPSR 240200 AAA
TAFPHX
TAF AMD
KPHX 240239Z 2403/2424 VRB04KT P6SM FEW250
     FM240800 10005KT P6SM SKC
     FM242100 VRB04KT P6SM SKC=



000
FTUS45 KPSR 232300
TAFPHX
TAF
KPHX 232320Z 2400/2424 VRB05KT P6SM FEW250
      TEMPO 2400/2404 28005KT
     FM240800 10005KT P6SM SKC
     FM242100 VRB04KT P6SM SKC=



000
FTUS45 KPSR 232300
TAFIPL
TAF
KIPL 232320Z 2400/2424 VRB03KT P6SM SKC
     FM240300 27005KT P6SM SKC
     FM241500 12004KT P6SM SKC=



000
FTUS45 KPSR 232300
TAFIWA
TAF
KIWA 232320Z 2400/2424 VRB04KT P6SM FEW250
      TEMPO 2400/2403 28004KT
     FM240400 10006KT P6SM SKC
     FM242000 28004KT P6SM SKC
      AMD LTD TO CLD VIS AND WIND 2403/2413=



000
FTUS45 KPSR 232300
TAFBLH
TAF
KBLH 232320Z 2400/2424 VRB04KT P6SM SKC
      TEMPO 2410/2414 34004KT
     FM241800 16005KT P6SM SKC=



000
FTUS45 KPSR 232200 AAA
TAFIWA
TAF AMD
KIWA 232208Z 2322/2418 VRB04KT P6SM FEW250
      TEMPO 2323/2403 28004KT
     FM240300 10006KT P6SM SKC=



000
FTUS45 KPSR 232000 AAA
TAFPHX
TAF AMD
KPHX 232059Z 2321/2418 10005KT P6SM FEW250
     FM232200 26005KT P6SM FEW250
     FM240500 10005KT P6SM SKC=



000
FTUS45 KPSR 231700
TAFIPL
TAF
KIPL 231736Z 2318/2418 VRB03KT P6SM SKC
     FM240100 27005KT P6SM SKC=



000
FTUS45 KPSR 231700
TAFBLH
TAF
KBLH 231736Z 2318/2418 VRB03KT P6SM SKC
     FM240700 32005KT P6SM SKC=



000
FTUS45 KPSR 231700
TAFIWA
TAF
KIWA 231736Z 2318/2418 12005KT P6SM FEW250
     FM232100 28005KT P6SM FEW250
     FM240300 10006KT P6SM SKC=



000
FTUS45 KPSR 231700
TAFPHX
TAF
KPHX 231736Z 2318/2418 10005KT P6SM FEW250
     FM232200 26005KT P6SM FEW250
     FM240500 10005KT P6SM SKC=



000
FTUS45 KPSR 231500 AAA
TAFPHX
TAF AMD
KPHX 231508Z 2315/2412 10004KT P6SM SKC
     FM232200 24005KT P6SM SKC
     FM240400 10004KT P6SM SKC=



000
FTUS45 KPSR 231100
TAFPHX
TAF
KPHX 231136Z 2312/2412 10004KT P6SM SKC
     FM232100 VRB03KT P6SM SKC
      TEMPO 2323/2403 24005KT
     FM240400 10004KT P6SM SKC=



000
FTUS45 KPSR 231100
TAFIWA
TAF
KIWA 231136Z 2312/2412 12005KT P6SM BKN250
     FM232100 VRB03KT P6SM SKC
      TEMPO 2323/2402 24005KT
     FM240300 10004KT P6SM SKC
      AMD LTD TO CLD VIS AND WIND TIL 231300=



000
FTUS45 KPSR 231100
TAFBLH
TAF
KBLH 231136Z 2312/2412 34005KT P6SM SKC
     FM231500 VRB03KT P6SM SKC=



000
FTUS45 KPSR 231100
TAFIPL
TAF
KIPL 231136Z 2312/2412 28005KT P6SM FEW250
     FM231800 VRB03KT P6SM SKC=



000
FTUS45 KPSR 230800 AAA
TAFPHX
TAF AMD
KPHX 230849Z 2309/2406 10004KT P6SM FEW250
     FM231900 VRB03KT P6SM SKC
      TEMPO 2400/2404 24005KT=



000
FTUS45 KPSR 230500
TAFBLH
TAF
KBLH 230526Z 2306/2406 34005KT P6SM BKN250
     FM231400 VRB03KT P6SM SKC=



000
FTUS45 KPSR 230500
TAFIPL
TAF
KIPL 230526Z 2306/2406 29005KT P6SM BKN250
      TEMPO 2306/2309 36004KT
     FM231800 VRB03KT P6SM SKC
      TEMPO 2321/2324 09005KT=



000
FTUS45 KPSR 230500
TAFIWA
TAF
KIWA 230526Z 2306/2406 12005KT P6SM BKN250
     FM231600 VRB03KT P6SM SKC
      TEMPO 2323/2403 28005KT
      AMD LTD TO CLD VIS AND WIND TIL 231300=



000
FTUS45 KPSR 230500
TAFPHX
TAF
KPHX 230526Z 2306/2406 09005KT P6SM BKN250
     FM231900 VRB03KT P6SM SKC
      TEMPO 2400/2404 24005KT=



000
FTUS45 KPSR 230300 AAA
TAFPHX
TAF AMD
KPHX 230303Z 2303/2324 VRB03KT P6SM FEW250
     FM230500 09005KT P6SM FEW250
     FM231900 VRB03KT P6SM BKN250=



000
FTUS45 KPSR 222300
TAFPHX
TAF
KPHX 222336Z 2300/2324 25005KT P6SM FEW250
     FM230500 09005KT P6SM FEW250
     FM231900 VRB03KT P6SM BKN250=



000
FTUS45 KPSR 222300
TAFBLH
TAF
KBLH 222336Z 2300/2324 VRB04KT P6SM SCT250
      TEMPO 2309/2313 34005KT=



000
FTUS45 KPSR 222300
TAFIWA
TAF
KIWA 222336Z 2300/2324 30004KT P6SM FEW250
     FM230400 12005KT P6SM FEW250
     FM231600 VRB03KT P6SM BKN250
      AMD LTD TO CLD VIS AND WIND 2303/2313=



000
FTUS45 KPSR 222300
TAFIPL
TAF
KIPL 222336Z 2300/2324 VRB03KT P6SM FEW250
      TEMPO 2300/2303 04005KT
     FM230400 29005KT P6SM SCT250
     FM231800 VRB03KT P6SM BKN250
      TEMPO 2321/2324 09005KT=



000
FTUS45 KPSR 222000 AAA
TAFPHX
TAF AMD
KPHX 222057Z 2221/2318 30005KT P6SM FEW250
     FM230500 09005KT P6SM FEW250=



000
FTUS45 KPSR 221700
TAFBLH
TAF
KBLH 221720Z 2218/2318 VRB04KT P6SM FEW250=



000
FTUS45 KPSR 221700
TAFPHX
TAF
KPHX 221720Z 2218/2318 10005KT P6SM FEW250
     FM222200 30005KT P6SM FEW250
     FM230500 09005KT P6SM FEW250=



000
FTUS45 KPSR 221700
TAFIPL
TAF
KIPL 221720Z 2218/2318 VRB03KT P6SM SKC
     FM230200 29005KT P6SM FEW250
     FM231400 VRB03KT P6SM FEW250=



000
FTUS45 KPSR 221700
TAFIWA
TAF
KIWA 221720Z 2218/2318 13004KT P6SM FEW250
     FM222100 30004KT P6SM FEW250
     FM230400 12005KT P6SM FEW250=



000
FTUS45 KPSR 221700
TAFIWA
TAF
KIWA 221720Z 2218/2318 13004KT P6SM FEW250
     FM222100 30004KT P6SM FEW250
     FM230400 12005KT P6SM FEW250=



000
FTUS45 KPSR 221700
TAFPHX
TAF
KPHX 221720Z 2218/2318 10005KT P6SM FEW250
     FM222200 30005KT P6SM FEW250
     FM230500 09005KT P6SM FEW250=



000
FTUS45 KPSR 221700
TAFIPL
TAF
KIPL 221720Z 2218/2318 VRB03KT P6SM SKC
     FM230200 29005KT P6SM FEW250
     FM231400 VRB03KT P6SM FEW250=



000
FTUS45 KPSR 221700
TAFBLH
TAF
KBLH 221720Z 2218/2318 VRB04KT P6SM FEW250=



000
FTUS45 KPSR 221600 AAA
TAFBLH
TAF AMD
KBLH 221638Z 2217/2312 VRB04KT P6SM FEW250=



000
FTUS45 KPSR 221600 AAA
TAFBLH
TAF AMD
KBLH 221638Z 2217/2312 VRB04KT P6SM FEW250=



000
FTUS45 KPSR 221400 AAA
TAFIWA
TAF AMD
KIWA 221449Z 2215/2312 13004KT P6SM FEW250
     FM222200 30005KT P6SM FEW250
     FM230400 12005KT P6SM FEW250
      AMD LTD TO CLD VIS AND WIND TIL 221300=



000
FTUS45 KPSR 221400 AAA
TAFPHX
TAF AMD
KPHX 221448Z 2215/2312 11005KT P6SM FEW250
     FM222200 30005KT P6SM FEW250
     FM230500 10005KT P6SM FEW250=



000
FTUS45 KPSR 221100
TAFIPL
TAF
KIPL 221121Z 2212/2312 VRB05KT P6SM FEW250=



000
FTUS45 KPSR 221100
TAFBLH
TAF
KBLH 221121Z 2212/2312 34005KT P6SM SCT250
     FM221800 VRB05KT P6SM FEW250=



000
FTUS45 KPSR 221100
TAFPHX
TAF
KPHX 221121Z 2212/2312 10005KT P6SM SKC
     FM221900 VRB04KT P6SM SKC
      TEMPO 2223/2302 32004KT
     FM230600 10005KT P6SM FEW250=



000
FTUS45 KPSR 221100
TAFIWA
TAF
KIWA 221121Z 2212/2312 14005KT P6SM SKC
     FM221800 VRB05KT P6SM FEW250
     FM222200 27005KT P6SM SKC
      TEMPO 2222/2302 32004KT
     FM230500 14005KT P6SM FEW250
      AMD LTD TO CLD VIS AND WIND TIL 221300=



000
FTUS45 KPSR 220900 AAA
TAFPHX
TAF AMD
KPHX 220901Z 2209/2306 10005KT P6SM SKC
     FM221900 VRB03KT P6SM FEW250
     FM222300 27005KT P6SM FEW250=



000
FTUS45 KPSR 220500
TAFIPL
TAF
KIPL 220539Z 2206/2306 26006KT P6SM SKC
     FM221600 VRB03KT P6SM FEW250
     FM230300 26005KT P6SM SKC=



000
FTUS45 KPSR 220500
TAFIWA
TAF
KIWA 220539Z 2206/2306 09005KT P6SM SKC
     FM221800 VRB03KT P6SM FEW250
     FM222200 27005KT P6SM SKC
      AMD LTD TO CLD VIS AND WIND TIL 221300=



000
FTUS45 KPSR 220500
TAFBLH
TAF
KBLH 220539Z 2206/2306 22005KT P6SM SKC
     FM220900 34004KT P6SM SCT250
     FM221800 VRB03KT P6SM FEW250
      TEMPO 2220/2224 18005KT=



000
FTUS45 KPSR 220500
TAFPHX
TAF
KPHX 220539Z 2206/2306 09005KT P6SM SKC
     FM221900 VRB03KT P6SM FEW250
     FM222300 27005KT P6SM FEW250=



000
FTUS45 KPSR 220500
TAFIWA
TAF
KIWA 220539Z 2206/2306 09005KT P6SM SKC
     FM221800 VRB03KT P6SM FEW250
     FM222200 27005KT P6SM SKC
      AMD LTD TO CLD VIS AND WIND TIL 221300=



000
FTUS45 KPSR 220500
TAFIPL
TAF
KIPL 220539Z 2206/2306 26006KT P6SM SKC
     FM221600 VRB03KT P6SM FEW250
     FM230300 26005KT P6SM SKC=



000
FTUS45 KPSR 220500
TAFPHX
TAF
KPHX 220539Z 2206/2306 09005KT P6SM SKC
     FM221900 VRB03KT P6SM FEW250
     FM222300 27005KT P6SM FEW250=



000
FTUS45 KPSR 220500
TAFBLH
TAF
KBLH 220539Z 2206/2306 22005KT P6SM SKC
     FM220900 34004KT P6SM SCT250
     FM221800 VRB03KT P6SM FEW250
      TEMPO 2220/2224 18005KT=



000
FTUS45 KPSR 220300 AAA
TAFPHX
TAF AMD
KPHX 220301Z 2203/2224 VRB03KT P6SM FEW250
     FM220600 09005KT P6SM FEW250
     FM222000 VRB03KT P6SM FEW250
      TEMPO 2221/2224 27005KT=



000
FTUS45 KPSR 212300
TAFIPL
TAF
KIPL 212340Z 2200/2224 12004KT P6SM SKC
     FM220200 26006KT P6SM FEW250
     FM221600 VRB03KT P6SM FEW250=



000
FTUS45 KPSR 212300
TAFPHX
TAF
KPHX 212340Z 2200/2224 VRB03KT P6SM FEW090 SCT250
      TEMPO 2200/2204 27006KT
     FM220600 09005KT P6SM FEW250
     FM222000 VRB03KT P6SM FEW250
      TEMPO 2221/2224 27005KT=



000
FTUS45 KPSR 212300
TAFIWA
TAF
KIWA 212340Z 2200/2224 VRB03KT P6SM FEW090 SCT250
      TEMPO 2200/2204 27006KT
     FM220600 09005KT P6SM FEW250
     FM221800 VRB03KT P6SM FEW250
      TEMPO 2220/2224 27005KT
      AMD LTD TO CLD VIS AND WIND 2203/2213=



000
FTUS45 KPSR 212300
TAFBLH
TAF
KBLH 212340Z 2200/2224 19005KT P6SM SKC
     FM220800 34004KT P6SM SCT250
     FM221800 VRB03KT P6SM FEW250
      TEMPO 2220/2224 18005KT=



    US Dept of Commerce
    National Oceanic and Atmospheric Administration
    National Weather Service
    1325 East West Highway
    Silver Spring, MD 20910
    Page Author: NWS Internet Services Team
Disclaimer
Information Quality
Credits
Glossary
Privacy Policy
Freedom of Information Act (FOIA)
About Us
Career Opportunities